Todd, Pennsylvania
Current Conditions -  °F | °C
As of 1:53 PM on Sunday 21 Dec 2014 (Local Time) from KAOO Reporting Station
Few Clouds Few Clouds  
Wind Chill: 32°   Ceiling: Unl
Heat Index: 32°   Visibility: 10mi
Dew Point: 21°   Wind: 3mph
Humidity: 64%   Direction: 350°N
Pressure: 30.24"   Gusts: NA
Location:  40.26°N, 78.08°W
Report Text: KAOO 211853Z AUTO 35003KT 10SM FEW024 00/M06 A3024 RMK AO2 SLP258 T00001061
Loading
Personal Weather Stations






























Interactive Weather Map New forecast layout! Learn more

10-Day Weather Forecast

Advertisements
Track Severe Weather on mobile